Jeffersonville, OH (43128)

5:17 PM EDT on April 25, 2017 (GMT -0400)
KOHJAMES2 | | Change Station

Elev 1093 ft 39.61 °N, 83.71 °W | Updated 19 seconds ago

Mostly Cloudy
Mostly Cloudy
74.1 °F
Feels Like 77 °F
N
0.0
Wind Variable Wind from SSE
Gusts 0.0 mph

Today
High -- | Low -- °F
--% Chance of Precip.
Yesterday
High -- | Low -- °F
Precip. -- in
Pressure 29.71 in
Visibility 10.0 miles
Clouds Few 4300 ft
Heat Index 77 °F
Dew Point 56 °F
Humidity 53%
Rainfall 0.00 in
Snow Depth Not available.
6:42 AM 8:22 PM
Waning Crescent, 1% visible
METAR KILN 252054Z AUTO 00000KT 10SM FEW043 24/14 A2971 RMK AO2 SLP059 T02390144 58016
Pressure 29.71 in
Visibility 10.0 miles
Clouds Few 4300 ft
Heat Index 77 °F
Dew Point 56 °F
Humidity 53%
Rainfall 0.00 in
Snow Depth Not available.
6:42 AM 8:22 PM
Waning Crescent, 1% visible
METAR KILN 252054Z AUTO 00000KT 10SM FEW043 24/14 A2971 RMK AO2 SLP059 T02390144 58016

Get Severe Weather Alerts

Thanks for signing up!

Be on the lookout for a verification email in your inbox.

You'll start receiving the daily forecast at 8 AM.

×

10-Day Weather Forecast

Almanac

Astronomy

Apr. 25, 2017 Rise Set
Actual Time
Civil Twilight
Nautical Twilight
Astronomical Twilight
Moon
Length of Visible Light
Length of Day
Tomorrow will be .
, % of the Moon is Illuminated

Today's Extremes

State Highs State Lows

Community

WunderPhotos

WunderBlog® & News

Nearby

Air Quality

  Air Quality AQ Index Pollutant
Not available.

Snow Depth

Station Depth Elevation

Earthquake Activity

City Distance Mag. Time & Date
Minimum magnitude displayed is 2.5.

Coastal Water Temperatures

Place Temperature

Stations

Nearby Weather Stations

Station Location Temp. Windchill Dew Point Humidity Wind Precip. Elev Updated Type
                   

Watches & Warnings

There are currently no watches in effect.